createdAt,value
2017-09-02T13:54:47.751Z,29.22
2017-09-02T13:57:16.106Z,28.93
2017-09-02T13:59:45.795Z,29.01
2017-09-02T14:02:14.597Z,29.35
2017-09-02T14:04:43.025Z,29.19
2017-09-02T14:07:11.405Z,29.06
2017-09-02T14:09:40.307Z,28.72
2017-09-02T14:12:08.658Z,28.48
2017-09-02T14:14:37.025Z,28.29
2017-09-02T14:17:05.895Z,28.09
2017-09-02T14:19:34.309Z,28.32
2017-09-02T14:22:02.719Z,28.77
2017-09-02T14:24:31.755Z,29.19
2017-09-02T14:27:00.330Z,29.33
2017-09-02T14:29:29.563Z,29.28
2017-09-02T14:31:58.208Z,29.07
2017-09-02T14:34:26.587Z,28.72
2017-09-02T14:36:55.861Z,28.53
2017-09-02T14:39:25.612Z,28.50
2017-09-02T14:41:54.079Z,28.82
2017-09-02T14:44:22.441Z,28.89
2017-09-02T14:46:51.102Z,28.76
2017-09-02T14:49:20.107Z,28.30
2017-09-02T14:51:48.483Z,28.28
2017-09-02T14:54:17.112Z,28.05
2017-09-02T14:56:45.479Z,27.86
2017-09-02T14:59:14.091Z,27.82
2017-09-02T15:01:43.967Z,27.87
2017-09-02T15:04:13.234Z,27.64
2017-09-02T15:06:42.644Z,27.88
2017-09-02T15:09:12.580Z,28.07
2017-09-02T15:11:41.382Z,28.07
2017-09-02T15:14:09.783Z,27.97
2017-09-02T15:16:38.479Z,28.10
2017-09-02T15:19:06.858Z,27.87
2017-09-02T15:21:35.237Z,27.77
2017-09-02T15:24:04.330Z,27.56
2017-09-02T15:26:32.772Z,27.64
2017-09-02T15:29:01.228Z,27.55
2017-09-02T15:31:29.864Z,27.42
2017-09-02T15:33:58.269Z,27.59
2017-09-02T15:36:26.768Z,27.32
2017-09-02T15:38:55.667Z,27.22
2017-09-02T15:41:25.193Z,27.12
2017-09-02T15:43:54.502Z,26.90
2017-09-02T15:46:23.317Z,26.82
2017-09-02T15:48:52.849Z,26.87
2017-09-02T15:51:23.679Z,27.00
2017-09-02T15:53:52.827Z,27.15
2017-09-02T15:56:21.288Z,26.90
2017-09-02T15:58:49.703Z,26.82
2017-09-02T16:01:18.395Z,26.69
2017-09-02T16:03:46.798Z,26.56
2017-09-02T16:06:15.896Z,26.41
2017-09-02T16:08:44.904Z,26.37
2017-09-02T16:11:13.343Z,26.29
2017-09-02T16:13:42.330Z,25.59
2017-09-02T16:16:11.063Z,25.13
2017-09-02T16:18:39.401Z,24.94
2017-09-02T16:21:07.745Z,24.61
2017-09-02T16:23:36.546Z,24.33
2017-09-02T16:26:05.836Z,23.71
2017-09-02T16:28:34.190Z,23.47
2017-09-02T16:31:03.286Z,22.98
2017-09-02T16:33:32.403Z,23.00
2017-09-02T16:36:00.831Z,22.58
2017-09-02T16:38:29.525Z,22.64
2017-09-02T16:40:58.323Z,22.69
2017-09-02T16:43:27.462Z,22.78
2017-09-02T16:45:56.099Z,22.63
2017-09-02T16:48:24.548Z,22.58
2017-09-02T16:50:53.684Z,22.65
2017-09-02T16:53:23.051Z,22.46
2017-09-02T16:55:51.449Z,22.38
2017-09-02T16:58:19.797Z,22.38
2017-09-02T17:00:48.711Z,22.40
2017-09-02T17:03:17.059Z,22.46
2017-09-02T17:05:45.447Z,22.53
2017-09-02T17:08:14.824Z,22.64
2017-09-02T17:10:44.029Z,22.51
2017-09-02T17:13:13.297Z,22.41
2017-09-02T17:15:44.239Z,22.08
2017-09-02T17:18:12.602Z,22.18
2017-09-02T17:20:40.957Z,22.04
2017-09-02T17:23:10.334Z,21.57
2017-09-02T17:25:39.324Z,21.46
2017-09-02T17:28:08.431Z,21.44
2017-09-02T17:30:38.849Z,21.24
2017-09-02T17:33:07.438Z,21.24
2017-09-02T17:35:35.835Z,21.13
2017-09-02T17:38:04.539Z,21.14
2017-09-02T17:40:32.881Z,21.49
2017-09-02T17:43:02.299Z,21.46
2017-09-02T17:45:31.207Z,21.43
2017-09-02T17:47:59.777Z,21.35
2017-09-02T17:50:28.171Z,21.35
2017-09-02T17:52:57.136Z,21.17
2017-09-02T17:55:25.937Z,21.46
2017-09-02T17:57:54.464Z,21.42
2017-09-02T18:00:23.958Z,21.42
2017-09-02T18:02:52.930Z,21.56
2017-09-02T18:05:21.590Z,21.58
2017-09-02T18:07:50.566Z,21.57
2017-09-02T18:10:19.182Z,21.52
2017-09-02T18:12:47.535Z,21.09
2017-09-02T18:15:16.303Z,20.85
2017-09-02T18:17:45.453Z,20.84
2017-09-02T18:20:13.823Z,20.22
2017-09-02T18:22:42.585Z,20.15
2017-09-02T18:25:10.948Z,20.21
2017-09-02T18:27:39.281Z,20.14
2017-09-02T18:30:07.942Z,20.26
2017-09-02T18:32:36.417Z,20.20
2017-09-02T18:35:05.339Z,20.15
2017-09-02T18:37:34.680Z,20.25
2017-09-02T18:40:04.593Z,20.28
2017-09-02T18:42:33.728Z,19.94
2017-09-02T18:45:02.714Z,19.75
2017-09-02T18:47:31.108Z,19.98
2017-09-02T18:49:59.465Z,19.80
2017-09-02T18:52:28.217Z,19.70
2017-09-02T18:54:56.611Z,19.84
2017-09-02T18:57:25.053Z,19.88
2017-09-02T18:59:54.015Z,19.72
2017-09-02T19:02:23.360Z,19.32
2017-09-02T19:04:51.728Z,19.08
2017-09-02T19:07:20.688Z,18.92
2017-09-02T19:09:49.715Z,18.85
2017-09-02T19:12:18.140Z,18.99
2017-09-02T19:14:47.632Z,19.06
2017-09-02T19:17:16.724Z,18.89
2017-09-02T19:19:45.139Z,18.53
2017-09-02T19:22:14.049Z,18.52
2017-09-02T19:24:43.267Z,18.52
2017-09-02T19:27:11.645Z,18.45
2017-09-02T19:29:40.584Z,18.49
2017-09-02T19:32:08.944Z,18.63
2017-09-02T19:34:37.302Z,18.68
2017-09-02T19:37:05.937Z,18.66
2017-09-02T19:39:35.047Z,18.80
2017-09-02T19:42:03.407Z,18.80
2017-09-02T19:44:33.714Z,18.96
2017-09-02T19:47:03.186Z,19.08
2017-09-02T19:49:31.790Z,19.22
2017-09-02T19:52:01.375Z,19.04
2017-09-02T19:54:30.296Z,19.02
2017-09-02T19:56:58.651Z,18.99
2017-09-02T19:59:27.409Z,18.95
2017-09-02T20:01:55.764Z,18.76
2017-09-02T20:04:25.057Z,18.78
2017-09-02T20:06:54.254Z,18.64
2017-09-02T20:09:22.648Z,18.38
2017-09-02T20:11:50.982Z,18.16
2017-09-02T20:14:20.943Z,18.06
2017-09-02T20:16:49.715Z,18.27
2017-09-02T20:19:18.656Z,18.17
2017-09-02T20:21:47.403Z,17.87
2017-09-02T20:24:15.796Z,17.81
2017-09-02T20:26:46.337Z,17.86
2017-09-02T20:29:16.014Z,18.11
2017-09-02T20:31:45.788Z,18.27
2017-09-02T20:34:16.158Z,18.31
2017-09-02T20:36:45.088Z,18.56
2017-09-02T20:39:13.581Z,18.58
2017-09-02T20:41:43.733Z,18.65
2017-09-02T20:44:21.989Z,18.51
2017-09-02T20:46:50.450Z,18.43
2017-09-02T20:49:20.666Z,18.43
2017-09-02T20:51:52.934Z,18.45
2017-09-02T20:54:22.376Z,18.46
2017-09-02T20:56:50.753Z,18.56
2017-09-02T20:59:20.252Z,18.42
2017-09-02T21:01:48.639Z,18.14
2017-09-02T21:04:17.794Z,18.04
2017-09-02T21:06:46.518Z,18.05
2017-09-02T21:09:17.665Z,18.05
2017-09-02T21:11:46.281Z,18.01
2017-09-02T21:14:15.031Z,17.91
2017-09-02T21:16:44.318Z,17.83
2017-09-02T21:19:12.992Z,17.79
2017-09-02T21:21:43.459Z,17.67
2017-09-02T21:24:11.823Z,17.73
2017-09-02T21:26:40.443Z,17.85
2017-09-02T21:29:09.340Z,17.80
2017-09-02T21:31:38.364Z,18.01
2017-09-02T21:34:07.469Z,18.18
2017-09-02T21:36:36.694Z,18.00
2017-09-02T21:39:05.381Z,18.17
2017-09-02T21:41:34.484Z,18.21
2017-09-02T21:44:04.911Z,18.19
2017-09-02T21:46:33.289Z,18.11
2017-09-02T21:49:01.703Z,18.05
2017-09-02T21:51:30.641Z,18.04
2017-09-02T21:53:59.044Z,18.00
2017-09-02T21:56:27.479Z,17.88
2017-09-02T21:59:00.264Z,17.77
2017-09-02T22:01:28.766Z,17.81
2017-09-02T22:03:57.849Z,17.86
2017-09-02T22:06:28.044Z,18.12
2017-09-02T22:08:57.562Z,18.02
2017-09-02T22:11:28.173Z,17.94
2017-09-02T22:13:56.522Z,17.80
2017-09-02T22:16:25.745Z,17.74
2017-09-02T22:18:54.814Z,17.83
2017-09-02T22:21:23.167Z,17.77
2017-09-02T22:23:53.183Z,17.90
2017-09-02T22:26:22.715Z,17.99
2017-09-02T22:28:51.972Z,17.97
2017-09-02T22:31:20.872Z,17.91
2017-09-02T22:33:50.452Z,17.96
2017-09-02T22:36:18.808Z,18.04
2017-09-02T22:38:48.554Z,17.68
2017-09-02T22:41:17.481Z,17.40
2017-09-02T22:43:46.381Z,17.20
2017-09-02T22:46:14.735Z,17.42
2017-09-02T22:48:44.191Z,17.46
2017-09-02T22:51:13.179Z,17.54
2017-09-02T22:53:41.629Z,17.61
2017-09-02T22:56:10.256Z,17.53
2017-09-02T22:58:38.616Z,17.57
2017-09-02T23:01:06.970Z,17.63
2017-09-02T23:03:35.970Z,17.67
2017-09-02T23:06:04.602Z,17.66
2017-09-02T23:08:33.851Z,17.64
2017-09-02T23:11:02.917Z,17.63
2017-09-02T23:13:31.294Z,17.63
2017-09-02T23:16:00.634Z,17.55
2017-09-02T23:18:29.770Z,17.47
2017-09-02T23:20:58.548Z,17.24
2017-09-02T23:23:26.902Z,16.94
2017-09-02T23:25:55.888Z,16.97
2017-09-02T23:28:24.684Z,16.85
2017-09-02T23:30:53.499Z,16.52
2017-09-02T23:33:22.157Z,16.61
2017-09-02T23:35:51.298Z,16.64
2017-09-02T23:38:19.677Z,16.49
2017-09-02T23:40:48.716Z,16.62
2017-09-02T23:43:17.843Z,16.73
2017-09-02T23:45:46.194Z,16.61
2017-09-02T23:48:15.828Z,16.69
2017-09-02T23:50:44.455Z,16.63
2017-09-02T23:53:12.914Z,16.58
2017-09-02T23:55:41.952Z,16.33
2017-09-02T23:58:10.301Z,16.21
